Time;durP1;ratioP1;P1;durP2;ratioP2;P2;SDS_P1;SDS_P2;PMS_P1;PMS_P2;Temp;Humidity;BMP_temperature;BMP_pressure;BME280_temperature;BME280_humidity;BME280_pressure;Samples;Min_cycle;Max_cycle;Signal;HPM_P1;HPM_P2
2023/04/04 00:00:21;;;;;;;3.47;2.00;;;;;;;-3.01;100.00;96487.72;1024372;28;20469;-69
2023/04/04 00:00:51;;;;;;;3.60;2.13;;;;;;;-3.01;100.00;96492.84;1014827;29;20023;-70
2023/04/04 00:01:22;;;;;;;4.00;2.17;;;;;;;-3.03;100.00;96487.06;1014638;29;20458;-70
2023/04/04 00:01:52;;;;;;;3.37;2.27;;;;;;;-3.03;100.00;96487.06;1026950;28;20118;-70
2023/04/04 00:02:23;;;;;;;3.53;1.93;;;;;;;-3.04;100.00;96492.38;1014792;29;20052;-70
2023/04/04 00:02:53;;;;;;;3.67;2.03;;;;;;;-3.04;100.00;96488.03;1018340;29;20337;-69
2023/04/04 00:03:24;;;;;;;3.00;2.07;;;;;;;-3.03;100.00;96489.63;1016214;29;20020;-71
2023/04/04 00:03:56;;;;;;;5.53;1.97;;;;;;;-3.01;100.00;96489.50;1026677;28;20132;-70
2023/04/04 00:04:26;;;;;;;3.08;2.10;;;;;;;-3.02;100.00;96487.88;1017844;29;20072;-70
2023/04/04 00:04:57;;;;;;;3.97;2.00;;;;;;;-3.02;100.00;96487.88;1026291;28;20141;-70
2023/04/04 00:05:28;;;;;;;2.83;1.87;;;;;;;-3.02;100.00;96485.31;1019303;29;20030;-70
2023/04/04 00:05:58;;;;;;;7.23;2.23;;;;;;;-3.02;100.00;96498.13;1018480;29;20478;-71
2023/04/04 00:06:29;;;;;;;2.20;1.97;;;;;;;-3.03;100.00;96484.50;1018672;29;20107;-70
2023/04/04 00:06:59;;;;;;;3.43;2.30;;;;;;;-3.09;100.00;96477.44;1012676;29;20099;-70
2023/04/04 00:07:30;;;;;;;3.23;2.23;;;;;;;-3.09;100.00;96478.22;1018305;29;20539;-70
2023/04/04 00:08:02;;;;;;;7.00;2.30;;;;;;;-3.04;100.00;96489.81;1026883;28;20586;-70
2023/04/04 00:08:32;;;;;;;4.45;2.28;;;;;;;-3.05;100.00;96488.19;1026101;28;20034;-71
2023/04/04 00:09:03;;;;;;;5.13;1.83;;;;;;;-3.08;100.00;96484.19;1015767;29;20024;-71
2023/04/04 00:09:33;;;;;;;3.63;2.10;;;;;;;-3.09;100.00;96480.78;1018276;29;20190;-70
2023/04/04 00:10:04;;;;;;;3.50;1.93;;;;;;;-3.09;100.00;96487.69;1022315;29;20097;-70
2023/04/04 00:10:35;;;;;;;4.73;2.07;;;;;;;-3.05;100.00;96486.44;1018567;29;20272;-70
2023/04/04 00:11:05;;;;;;;3.57;2.10;;;;;;;-3.08;100.00;96485.00;1018350;29;20262;-70
2023/04/04 00:11:36;;;;;;;5.97;2.33;;;;;;;-3.06;100.00;96477.13;1022161;29;20509;-70
2023/04/04 00:12:06;;;;;;;4.03;2.10;;;;;;;-3.06;100.00;96484.00;1021149;29;20208;-71
2023/04/04 00:12:37;;;;;;;4.13;1.93;;;;;;;-3.04;100.00;96484.69;1014142;29;20028;-70
2023/04/04 00:13:08;;;;;;;4.93;2.10;;;;;;;-3.26;100.00;96453.50;1018684;29;20610;-70
2023/04/04 00:13:39;;;;;;;3.25;1.73;;;;;;;-3.14;100.00;96475.34;1014142;29;20024;-71
2023/04/04 00:14:09;;;;;;;3.20;2.20;;;;;;;-3.06;100.00;96481.44;1025241;28;20037;-70
2023/04/04 00:14:40;;;;;;;5.40;2.10;;;;;;;-3.09;100.00;96480.78;1021234;29;20047;-70
2023/04/04 00:15:11;;;;;;;3.93;2.03;;;;;;;-3.11;100.00;96479.38;1015021;29;20401;-71
2023/04/04 00:15:41;;;;;;;5.10;2.03;;;;;;;-3.09;100.00;96475.66;1031223;28;20032;-71
2023/04/04 00:16:12;;;;;;;4.90;2.00;;;;;;;-3.09;100.00;96485.94;1023792;29;20167;-70
2023/04/04 00:16:42;;;;;;;8.37;2.67;;;;;;;-3.10;100.00;96481.75;1019723;29;20024;-69
2023/04/04 00:17:13;;;;;;;3.47;1.80;;;;;;;-3.10;100.00;96471.50;1017940;29;20052;-71
2023/04/04 00:17:43;;;;;;;7.00;2.37;;;;;;;-3.11;100.00;96480.16;1023760;29;20031;-70
2023/04/04 00:18:14;;;;;;;4.93;2.23;;;;;;;-3.11;100.00;96477.59;1022455;29;20528;-71
2023/04/04 00:18:44;;;;;;;4.07;2.30;;;;;;;-3.11;100.00;96477.59;1022541;29;20102;-71
2023/04/04 00:19:17;;;;;;;4.50;2.30;;;;;;;-3.12;100.00;96468.31;1018184;29;20055;-70
2023/04/04 00:19:47;;;;;;;5.38;2.03;;;;;;;-3.12;100.00;96481.13;1022187;29;20027;-70
2023/04/04 00:20:18;;;;;;;3.70;2.27;;;;;;;-3.13;100.00;96481.28;1026613;28;20125;-70
2023/04/04 00:20:48;;;;;;;4.77;2.27;;;;;;;-3.13;100.00;96476.16;1012649;29;20176;-70
2023/04/04 00:21:19;;;;;;;5.23;1.93;;;;;;;-3.12;100.00;96477.75;1014833;29;20019;-71
2023/04/04 00:21:49;;;;;;;3.17;2.23;;;;;;;-3.13;100.00;96479.50;1022146;29;20046;-70
2023/04/04 00:22:20;;;;;;;3.67;2.03;;;;;;;-3.11;100.00;96474.22;1018258;29;20548;-72
2023/04/04 00:22:50;;;;;;;4.90;2.20;;;;;;;-3.13;100.00;96471.81;1018429;29;20577;-69
2023/04/04 00:23:21;;;;;;;3.37;2.13;;;;;;;-3.15;100.00;96468.63;1018159;29;20024;-70
2023/04/04 00:23:53;;;;;;;3.70;1.90;;;;;;;-3.13;100.00;96471.00;1018219;29;20272;-70
2023/04/04 00:24:23;;;;;;;5.38;2.22;;;;;;;-3.16;100.00;96468.75;1022193;28;20142;-70
2023/04/04 00:24:54;;;;;;;6.73;3.27;;;;;;;-3.14;100.00;96472.00;1029579;28;20148;-69
2023/04/04 00:25:24;;;;;;;5.43;2.23;;;;;;;-3.13;100.00;96471.00;1022553;29;20504;-70
2023/04/04 00:25:55;;;;;;;6.23;2.70;;;;;;;-3.14;100.00;96477.91;1014217;29;20111;-70
2023/04/04 00:26:26;;;;;;;4.57;2.40;;;;;;;-3.14;100.00;96474.56;1018281;29;20027;-70
2023/04/04 00:26:56;;;;;;;4.43;1.67;;;;;;;-3.16;100.00;96472.13;1022687;29;20043;-70
2023/04/04 00:27:27;;;;;;;4.27;2.23;;;;;;;-3.16;100.00;96472.13;1022216;29;20031;-71
2023/04/04 00:27:59;;;;;;;4.00;2.20;;;;;;;-3.18;100.00;96468.94;1022074;29;20023;-71
2023/04/04 00:28:30;;;;;;;2.55;2.03;;;;;;;-3.18;100.00;96471.50;1022503;29;20130;-70
2023/04/04 00:29:00;;;;;;;3.47;2.20;;;;;;;-3.20;100.00;96473.41;1022271;29;20059;-70
2023/04/04 00:29:33;;;;;;;2.63;1.87;;;;;;;-3.18;100.00;96473.28;1018399;29;20128;-70
2023/04/04 00:30:04;;;;;;;6.75;2.88;;;;;;;-3.19;100.00;96472.44;1022269;29;20083;-70
2023/04/04 00:30:35;;;;;;;3.15;2.17;;;;;;;-3.20;100.00;96473.41;1018201;29;20040;-71
2023/04/04 00:31:06;;;;;;;3.90;1.80;;;;;;;-3.22;100.00;96467.66;1014713;29;20028;-70
2023/04/04 00:31:36;;;;;;;3.20;2.07;;;;;;;-3.18;100.00;96473.28;1018194;29;20122;-70
2023/04/04 00:32:07;;;;;;;4.03;2.30;;;;;;;-3.18;100.00;96474.06;1022218;29;20059;-70
2023/04/04 00:32:37;;;;;;;2.57;1.97;;;;;;;-3.19;100.00;96467.31;1026614;28;20141;-70
2023/04/04 00:33:08;;;;;;;5.27;2.03;;;;;;;-3.18;100.00;96473.28;1021814;29;20121;-70
2023/04/04 00:33:38;;;;;;;5.77;2.17;;;;;;;-3.22;100.00;96465.09;1022517;29;20035;-70
2023/04/04 00:34:09;;;;;;;4.33;2.80;;;;;;;-3.19;100.00;96471.66;1018170;29;20086;-70
2023/04/04 00:34:40;;;;;;;4.50;2.77;;;;;;;-3.20;100.00;96470.03;1011762;29;20064;-70
2023/04/04 00:35:10;;;;;;;5.37;2.27;;;;;;;-3.21;100.00;96469.25;1022515;29;20477;-70
2023/04/04 00:35:41;;;;;;;3.83;2.03;;;;;;;-3.21;100.00;96471.81;1014268;29;20051;-70
2023/04/04 00:36:12;;;;;;;5.13;2.67;;;;;;;-3.22;100.00;96467.66;1022988;28;20058;-71
2023/04/04 00:36:42;;;;;;;6.07;2.40;;;;;;;-3.27;100.00;96469.88;1022480;29;20038;-70
2023/04/04 00:37:12;;;;;;;4.93;2.23;;;;;;;-3.19;100.00;96471.66;1018273;29;20066;-70
2023/04/04 00:37:43;;;;;;;7.40;2.97;;;;;;;-3.21;100.00;96469.25;1018663;29;20035;-70
2023/04/04 00:38:13;;;;;;;3.83;2.37;;;;;;;-3.22;100.00;96462.53;1022068;29;20034;-70
2023/04/04 00:38:44;;;;;;;2.70;2.10;;;;;;;-3.27;100.00;96464.75;1021961;29;20042;-70
2023/04/04 00:39:15;;;;;;;4.07;2.00;;;;;;;-3.24;100.00;96464.44;1022494;29;20031;-70
2023/04/04 00:39:46;;;;;;;3.07;2.23;;;;;;;-3.26;100.00;96471.47;1021973;29;20508;-70
2023/04/04 00:40:17;;;;;;;3.58;2.80;;;;;;;-3.27;100.00;96469.88;1018345;29;20063;-70
2023/04/04 00:40:48;;;;;;;3.17;2.10;;;;;;;-3.27;100.00;96469.88;1018429;29;20034;-70
2023/04/04 00:41:18;;;;;;;2.78;2.30;;;;;;;-3.23;100.00;96466.03;1022918;28;20147;-70
2023/04/04 00:41:49;;;;;;;3.37;2.30;;;;;;;-3.25;100.00;96462.00;1022525;29;20030;-70
2023/04/04 00:42:19;;;;;;;3.33;1.90;;;;;;;-3.25;100.00;96467.97;1026109;28;20430;-71
2023/04/04 00:42:50;;;;;;;4.87;2.40;;;;;;;-3.27;100.00;96459.59;1025963;28;20077;-70
2023/04/04 00:43:21;;;;;;;3.17;1.93;;;;;;;-3.38;100.00;96452.22;1029788;28;20494;-70
2023/04/04 00:43:51;;;;;;;3.70;2.30;;;;;;;-3.37;100.00;96453.81;1022280;29;20027;-70
2023/04/04 00:44:22;;;;;;;7.00;2.43;;;;;;;-3.30;100.00;96465.06;1022135;29;20042;-70
2023/04/04 00:44:52;;;;;;;5.00;2.23;;;;;;;-3.30;100.00;96465.06;1021607;28;20156;-70
2023/04/04 00:45:23;;;;;;;5.10;2.23;;;;;;;-3.38;100.00;96452.22;1018254;29;20126;-70
2023/04/04 00:45:53;;;;;;;2.93;2.10;;;;;;;-3.34;100.00;96461.22;1018639;29;20036;-68
2023/04/04 00:46:25;;;;;;;4.07;1.90;;;;;;;-3.34;100.00;96463.78;1025900;28;20475;-70
2023/04/04 00:46:56;;;;;;;4.13;1.95;;;;;;;-3.33;100.00;96463.59;1018128;29;20066;-71
2023/04/04 00:47:28;;;;;;;5.63;2.40;;;;;;;-3.34;100.00;96458.63;1022455;29;20042;-69
2023/04/04 00:48:01;;;;;;;3.83;2.20;;;;;;;-3.34;100.00;96461.22;1026206;28;20037;-71
2023/04/04 00:48:32;;;;;;;3.33;2.22;;;;;;;-3.32;100.00;96456.69;1022201;29;20035;-73
2023/04/04 00:49:02;;;;;;;3.83;2.25;;;;;;;-3.32;100.00;96456.69;1022065;29;20058;-70
2023/04/04 00:49:33;;;;;;;4.23;2.50;;;;;;;-3.32;100.00;96459.25;1014254;29;20514;-68
2023/04/04 00:50:05;;;;;;;3.90;2.07;;;;;;;-3.34;100.00;96458.63;1017478;29;20070;-70
2023/04/04 00:50:35;;;;;;;6.47;2.78;;;;;;;-3.34;100.00;96454.31;1018287;29;20042;-70
2023/04/04 00:51:06;;;;;;;5.37;2.30;;;;;;;-3.35;100.00;96462.97;1014394;29;20044;-72
2023/04/04 00:51:36;;;;;;;6.13;2.63;;;;;;;-3.43;100.00;96449.31;1014650;29;20361;-70
2023/04/04 00:52:07;;;;;;;5.30;2.43;;;;;;;-3.37;100.00;96453.81;1018343;29;20036;-70
2023/04/04 00:52:38;;;;;;;3.17;2.33;;;;;;;-3.39;100.00;96456.53;1016790;29;20185;-72
2023/04/04 00:53:08;;;;;;;4.13;2.30;;;;;;;-3.39;100.00;96455.72;1018140;29;20774;-70
2023/04/04 00:53:39;;;;;;;3.33;2.40;;;;;;;-3.40;100.00;96454.94;1022044;29;20457;-70
2023/04/04 00:54:09;;;;;;;6.13;2.30;;;;;;;-3.46;100.00;96439.38;1022387;29;20078;-70
2023/04/04 00:54:40;;;;;;;3.27;1.73;;;;;;;-3.40;100.00;96456.69;1013431;29;20036;-72
2023/04/04 00:55:10;;;;;;;4.63;2.37;;;;;;;-3.40;100.00;96456.69;1017891;29;20062;-71
2023/04/04 00:55:42;;;;;;;5.30;2.37;;;;;;;-3.38;100.00;96454.78;1014555;29;20027;-70
2023/04/04 00:56:13;;;;;;;4.43;2.33;;;;;;;-3.41;100.00;96452.53;1026120;28;20035;-70
2023/04/04 00:56:44;;;;;;;4.30;2.30;;;;;;;-3.42;100.00;96451.75;1022255;29;20122;-72
2023/04/04 00:57:15;;;;;;;4.67;2.30;;;;;;;-3.42;100.00;96453.47;1022097;29;20070;-69
2023/04/04 00:57:45;;;;;;;5.18;2.30;;;;;;;-3.43;100.00;96449.31;1026008;28;20374;-71
2023/04/04 00:58:16;;;;;;;4.30;2.13;;;;;;;-3.43;100.00;96457.00;1022352;29;20130;-72
2023/04/04 00:58:46;;;;;;;2.73;2.23;;;;;;;-3.46;100.00;96441.94;1018104;29;20451;-69
2023/04/04 00:59:17;;;;;;;4.03;2.30;;;;;;;-3.46;100.00;96449.63;1018070;29;20039;-70
2023/04/04 00:59:47;;;;;;;5.17;2.60;;;;;;;-3.47;100.00;96453.97;1018560;29;20157;-70
2023/04/04 01:00:18;;;;;;;7.90;2.70;;;;;;;-3.48;100.00;96447.22;1018063;29;20597;-70
2023/04/04 01:00:49;;;;;;;4.53;2.17;;;;;;;-3.49;100.00;96445.59;1014461;29;20094;-72
2023/04/04 01:01:19;;;;;;;4.63;2.23;;;;;;;-3.49;100.00;96452.50;1014257;29;20063;-70
2023/04/04 01:01:50;;;;;;;4.87;2.67;;;;;;;-3.48;100.00;96449.00;1021994;29;20034;-71
2023/04/04 01:02:20;;;;;;;3.23;2.00;;;;;;;-3.48;100.00;96443.88;1022610;29;20489;-71
2023/04/04 01:02:51;;;;;;;4.10;2.17;;;;;;;-3.49;100.00;96449.94;1022110;29;20027;-70
2023/04/04 01:03:22;;;;;;;3.07;2.20;;;;;;;-3.50;100.00;96449.13;1018064;29;20059;-70
2023/04/04 01:03:52;;;;;;;3.80;2.30;;;;;;;-3.50;100.00;96450.91;1026387;28;20018;-70
2023/04/04 01:04:23;;;;;;;5.30;2.40;;;;;;;-3.49;100.00;96449.94;1026129;28;20129;-70
2023/04/04 01:04:53;;;;;;;5.60;2.40;;;;;;;-3.51;100.00;96447.53;1021544;29;20777;-72
2023/04/04 01:05:24;;;;;;;7.67;2.40;;;;;;;-3.50;100.00;96449.13;1022025;29;20062;-71
2023/04/04 01:05:54;;;;;;;3.30;2.23;;;;;;;-3.49;100.00;96444.81;1014303;29;20467;-70
2023/04/04 01:06:26;;;;;;;4.47;2.60;;;;;;;-3.50;100.00;96445.78;1014609;29;20040;-70
2023/04/04 01:06:57;;;;;;;6.55;2.22;;;;;;;-3.59;100.00;96435.50;1019601;29;20118;-69
2023/04/04 01:07:27;;;;;;;4.97;2.47;;;;;;;-3.52;100.00;96445.94;1026041;28;20354;-70
2023/04/04 01:07:58;;;;;;;3.00;2.03;;;;;;;-3.52;100.00;96445.13;1014590;29;20032;-71
2023/04/04 01:08:28;;;;;;;4.57;2.33;;;;;;;-3.55;100.00;96443.69;1021321;29;20031;-71
2023/04/04 01:08:59;;;;;;;3.83;2.40;;;;;;;-3.57;100.00;96446.41;1022249;29;20378;-70
2023/04/04 01:09:30;;;;;;;4.10;2.27;;;;;;;-3.58;100.00;96444.81;1018210;29;20036;-70
2023/04/04 01:10:02;;;;;;;4.90;2.40;;;;;;;-3.58;100.00;96444.81;1022095;29;20059;-71
2023/04/04 01:10:33;;;;;;;3.60;2.42;;;;;;;-3.59;100.00;96443.19;1018408;29;20031;-70
2023/04/04 01:11:05;;;;;;;4.33;2.80;;;;;;;-3.61;100.00;96442.53;1022173;29;20537;-70
2023/04/04 01:11:35;;;;;;;5.07;2.53;;;;;;;-3.61;100.00;96447.69;1018092;29;20036;-70
2023/04/04 01:12:06;;;;;;;4.10;2.23;;;;;;;-3.66;100.00;96439.63;1022258;29;20066;-72
2023/04/04 01:12:36;;;;;;;5.70;2.73;;;;;;;-3.64;100.00;96442.84;1026085;28;20769;-70
2023/04/04 01:13:07;;;;;;;6.43;2.20;;;;;;;-3.64;100.00;96442.84;1022526;29;20027;-71
2023/04/04 01:13:38;;;;;;;6.23;2.50;;;;;;;-3.64;100.00;96439.50;1020824;29;20287;-70
2023/04/04 01:14:08;;;;;;;4.27;2.37;;;;;;;-3.62;100.00;96446.06;1017827;29;20158;-70
2023/04/04 01:14:39;;;;;;;7.50;2.43;;;;;;;-3.62;100.00;96438.38;1017735;29;20083;-71
2023/04/04 01:15:10;;;;;;;8.33;2.27;;;;;;;-3.62;100.00;96438.38;1029763;28;20030;-70
2023/04/04 01:15:41;;;;;;;7.20;2.17;;;;;;;-3.62;100.00;96438.38;1021807;28;20660;-70
2023/04/04 01:16:11;;;;;;;3.50;2.40;;;;;;;-3.65;100.00;96436.13;1014417;29;20028;-71
2023/04/04 01:16:42;;;;;;;6.43;2.67;;;;;;;-3.65;100.00;96433.56;1015423;29;20456;-70
2023/04/04 01:17:12;;;;;;;3.03;2.30;;;;;;;-3.64;100.00;96435.16;1018463;29;20090;-71
2023/04/04 01:17:43;;;;;;;4.67;2.40;;;;;;;-3.64;100.00;96435.16;1018203;29;20062;-70
2023/04/04 01:18:16;;;;;;;5.45;2.92;;;;;;;-3.62;100.00;96433.25;1018194;29;20045;-70
2023/04/04 01:18:46;;;;;;;7.97;2.20;;;;;;;-3.62;100.00;96440.94;1026170;28;20207;-70
2023/04/04 01:19:37;;;;;;;7.03;2.87;;;;;;;-3.61;100.00;96434.06;1014283;29;20103;-71
2023/04/04 01:20:13;;;;;;;3.38;1.90;;;;;;;-3.59;100.00;96432.94;1018444;29;20401;-70
2023/04/04 01:20:51;;;;;;;3.40;2.38;;;;;;;-3.57;100.00;96436.13;1014592;29;20461;-69
2023/04/04 01:21:21;;;;;;;5.53;2.20;;;;;;;-3.58;100.00;96431.97;1026375;28;20103;-70
2023/04/04 01:21:52;;;;;;;6.67;2.63;;;;;;;-3.58;100.00;96431.19;1025973;28;20046;-69
2023/04/04 01:22:23;;;;;;;2.90;2.27;;;;;;;-3.60;100.00;96426.19;1018015;29;20035;-71
2023/04/04 01:22:53;;;;;;;6.50;2.63;;;;;;;-3.61;100.00;96432.28;1018192;29;20059;-70
2023/04/04 01:23:29;;;;;;;3.10;2.23;;;;;;;-3.62;100.00;96425.56;1018085;29;20215;-69
2023/04/04 01:24:01;;;;;;;5.90;2.50;;;;;;;-3.61;100.00;96423.78;1021695;28;20027;-75
2023/04/04 01:24:32;;;;;;;4.50;2.50;;;;;;;-3.63;100.00;96426.50;1016690;29;21122;-71
2023/04/04 01:25:03;;;;;;;4.28;2.65;;;;;;;-3.63;100.00;96429.06;1010291;29;20406;-70
2023/04/04 01:25:34;;;;;;;3.83;2.60;;;;;;;-3.65;100.00;96425.88;1010484;29;20056;-70
2023/04/04 01:26:05;;;;;;;3.97;2.10;;;;;;;-3.65;100.00;96425.88;1015617;29;20123;-69
2023/04/04 01:26:36;;;;;;;4.90;2.50;;;;;;;-3.66;100.00;96421.69;1014392;29;20076;-72
2023/04/04 01:27:06;;;;;;;5.80;2.40;;;;;;;-3.66;100.00;96423.44;1014580;29;20240;-70
2023/04/04 01:27:37;;;;;;;4.47;2.50;;;;;;;-3.68;100.00;96420.25;1021864;28;20125;-70
2023/04/04 01:28:08;;;;;;;4.88;2.60;;;;;;;-3.70;100.00;96419.59;1022485;29;20027;-70
2023/04/04 01:28:39;;;;;;;4.87;2.60;;;;;;;-3.69;100.00;96427.16;1025856;28;20062;-70
2023/04/04 01:29:10;;;;;;;6.05;2.40;;;;;;;-3.66;100.00;96426.00;1014220;29;20059;-69
2023/04/04 01:29:40;;;;;;;6.00;2.57;;;;;;;-3.70;100.00;96420.41;1022131;29;20477;-70
2023/04/04 01:30:11;;;;;;;5.83;2.97;;;;;;;-3.70;100.00;96422.97;1022117;29;20130;-70
2023/04/04 01:30:42;;;;;;;3.90;2.33;;;;;;;-3.68;100.00;96422.81;1010134;29;20040;-71
2023/04/04 01:31:13;;;;;;;5.40;2.60;;;;;;;-3.69;100.00;96427.16;1022342;29;20306;-70
2023/04/04 01:31:48;;;;;;;3.03;2.40;;;;;;;-3.73;100.00;96419.91;1014223;29;20084;-70
2023/04/04 01:32:20;;;;;;;4.28;2.05;;;;;;;-3.67;100.00;96420.09;1026417;28;20543;-70
2023/04/04 01:32:55;;;;;;;3.88;2.13;;;;;;;-3.66;100.00;96426.81;1025680;28;20447;-69
2023/04/04 01:33:31;;;;;;;3.58;2.20;;;;;;;-3.70;100.00;96411.91;1021978;29;20039;-71
2023/04/04 01:34:08;;;;;;;6.28;2.50;;;;;;;-3.66;100.00;96424.25;1022398;29;20023;-71
2023/04/04 01:35:01;;;;;;;4.05;2.75;;;;;;;-3.66;100.00;96418.31;1021034;28;20031;-70
2023/04/04 01:36:00;;;;;;;3.08;2.45;;;;;;;-3.67;100.00;96421.84;1022055;29;20025;-71
2023/04/04 01:36:35;;;;;;;3.80;2.53;;;;;;;-3.70;100.00;96422.16;1017954;29;20302;-70
2023/04/04 01:37:10;;;;;;;3.53;2.35;;;;;;;-3.70;100.00;96420.41;1018033;29;20031;-72
2023/04/04 01:38:05;;;;;;;5.32;3.42;;;;;;;-3.94;100.00;96389.56;1018488;29;20023;-70
2023/04/04 01:39:09;;;;;;;5.55;2.22;;;;;;;-3.75;100.00;96417.50;1022110;29;20270;-70
2023/04/04 01:40:01;;;;;;;4.57;2.67;;;;;;;-3.76;100.00;96417.66;1023018;28;20030;-71
2023/04/04 01:40:36;;;;;;;5.07;2.80;;;;;;;-3.76;100.00;96417.66;1018495;29;20146;-72
2023/04/04 01:41:07;;;;;;;4.60;2.60;;;;;;;-3.75;100.00;96414.16;1018034;29;20091;-69
2023/04/04 01:41:38;;;;;;;4.13;2.40;;;;;;;-3.83;100.00;96407.22;1017823;29;20031;-70
2023/04/04 01:42:08;;;;;;;4.87;2.73;;;;;;;-3.75;100.00;96414.16;1026407;28;20030;-69
2023/04/04 01:42:40;;;;;;;4.07;2.00;;;;;;;-3.73;100.00;96412.22;1021973;29;20035;-70
2023/04/04 01:43:10;;;;;;;4.70;2.47;;;;;;;-3.71;100.00;96415.44;1018192;29;20031;-69
2023/04/04 01:43:44;;;;;;;6.77;2.30;;;;;;;-3.74;100.00;96416.53;1025901;28;20035;-69
2023/04/04 01:44:17;;;;;;;5.05;2.35;;;;;;;-3.74;100.00;96416.53;1022125;29;20158;-70
2023/04/04 01:44:53;;;;;;;4.22;2.72;;;;;;;-3.71;100.00;96415.44;1021318;29;20091;-71
2023/04/04 01:45:24;;;;;;;5.10;2.33;;;;;;;-3.74;100.00;96413.97;1018151;29;20062;-71
2023/04/04 01:45:55;;;;;;;5.07;2.73;;;;;;;-3.76;100.00;96413.31;1018463;29;20204;-70
2023/04/04 01:46:25;;;;;;;3.77;2.40;;;;;;;-3.78;100.00;96415.25;1018035;29;20083;-70
2023/04/04 01:46:56;;;;;;;7.30;2.53;;;;;;;-3.75;100.00;96414.94;1022035;29;20149;-71
2023/04/04 01:47:28;;;;;;;3.23;2.20;;;;;;;-3.76;100.00;96415.09;1022408;29;20632;-69
2023/04/04 01:47:58;;;;;;;5.65;2.78;;;;;;;-3.79;100.00;96418.75;1018054;29;20059;-69
2023/04/04 01:48:29;;;;;;;3.60;2.40;;;;;;;-3.78;100.00;96411.91;1018085;29;20111;-70
2023/04/04 01:48:59;;;;;;;6.27;2.60;;;;;;;-3.78;100.00;96414.47;1018397;29;20584;-70
2023/04/04 01:49:30;;;;;;;5.63;2.63;;;;;;;-3.83;100.00;96407.22;1029882;28;20563;-72
2023/04/04 01:50:00;;;;;;;5.30;2.70;;;;;;;-3.80;100.00;96412.03;1022257;29;20031;-70
2023/04/04 01:50:31;;;;;;;8.73;2.77;;;;;;;-3.87;100.00;96395.69;1018208;29;20066;-70
2023/04/04 01:51:01;;;;;;;2.93;2.50;;;;;;;-3.80;100.00;96412.84;1022167;29;20157;-70
2023/04/04 01:51:32;;;;;;;3.57;2.47;;;;;;;-3.79;100.00;96411.06;1026156;28;20018;-73
2023/04/04 01:52:03;;;;;;;4.77;2.93;;;;;;;-3.80;100.00;96412.84;1026088;28;20516;-70
2023/04/04 01:52:33;;;;;;;4.10;2.70;;;;;;;-3.83;100.00;96407.22;1020443;29;20030;-72
2023/04/04 01:53:04;;;;;;;3.33;2.37;;;;;;;-3.83;100.00;96407.22;1030134;28;20168;-72
2023/04/04 01:53:36;;;;;;;6.30;2.90;;;;;;;-3.91;100.00;96395.19;1021866;28;20119;-72
2023/04/04 01:54:06;;;;;;;5.93;2.50;;;;;;;-3.84;100.00;96410.75;1014266;29;20059;-70
2023/04/04 01:54:37;;;;;;;3.10;2.50;;;;;;;-3.82;100.00;96408.84;1017258;29;20071;-70
2023/04/04 01:55:08;;;;;;;3.43;2.40;;;;;;;-3.82;100.00;96413.97;1012761;29;20062;-70
2023/04/04 01:55:38;;;;;;;5.03;2.57;;;;;;;-3.83;100.00;96413.16;1022284;28;20576;-71
2023/04/04 01:56:09;;;;;;;5.90;2.47;;;;;;;-3.88;100.00;96409.47;1018130;29;20028;-70
2023/04/04 01:56:39;;;;;;;4.93;2.70;;;;;;;-3.82;100.00;96414.78;1017828;29;20284;-70
2023/04/04 01:57:10;;;;;;;6.10;2.30;;;;;;;-3.83;100.00;96418.28;1022359;29;20053;-70
2023/04/04 01:57:40;;;;;;;4.03;2.37;;;;;;;-3.86;100.00;96408.31;1017862;29;20059;-71
2023/04/04 01:58:11;;;;;;;8.47;3.07;;;;;;;-3.82;100.00;96408.84;1010581;29;20063;-70
2023/04/04 01:58:42;;;;;;;5.23;2.20;;;;;;;-3.82;100.00;96411.41;1018024;29;20164;-70
2023/04/04 01:59:13;;;;;;;5.00;2.30;;;;;;;-3.91;100.00;96394.41;1014311;29;20190;-70
2023/04/04 01:59:43;;;;;;;6.03;2.70;;;;;;;-3.82;100.00;96408.84;1014448;29;20107;-71
2023/04/04 02:00:15;;;;;;;5.13;2.47;;;;;;;-4.06;100.00;96371.09;1016832;29;20449;-70
2023/04/04 02:00:45;;;;;;;6.32;2.40;;;;;;;-3.83;100.00;96412.34;1017944;29;20043;-70
2023/04/04 02:01:16;;;;;;;9.47;2.77;;;;;;;-3.83;100.00;96412.34;1018496;29;20163;-70
2023/04/04 02:01:46;;;;;;;3.17;2.07;;;;;;;-3.81;100.00;96410.44;1013828;29;20234;-70
2023/04/04 02:02:17;;;;;;;3.13;2.60;;;;;;;-3.83;100.00;96414.91;1014584;29;20020;-70
2023/04/04 02:02:47;;;;;;;3.33;2.60;;;;;;;-3.88;100.00;96405.13;1014109;29;20043;-70
2023/04/04 02:03:18;;;;;;;4.60;2.30;;;;;;;-3.83;100.00;96413.16;1006450;29;20483;-70
2023/04/04 02:03:48;;;;;;;2.93;2.37;;;;;;;-3.84;100.00;96408.19;1018073;29;20192;-71
2023/04/04 02:04:19;;;;;;;3.37;2.23;;;;;;;-3.85;100.00;96414.28;1025775;28;20030;-70
2023/04/04 02:04:49;;;;;;;4.00;2.53;;;;;;;-3.86;100.00;96417.78;1024944;28;20114;-67
2023/04/04 02:05:20;;;;;;;4.87;2.40;;;;;;;-3.89;100.00;96413.78;1022763;29;20051;-72
2023/04/04 02:05:51;;;;;;;3.67;2.53;;;;;;;-3.88;100.00;96422.28;1015096;29;20035;-71
2023/04/04 02:06:22;;;;;;;4.68;2.63;;;;;;;-3.89;100.00;96418.09;1023709;29;20027;-71
2023/04/04 02:06:54;;;;;;;3.07;2.07;;;;;;;-3.95;100.00;96411.84;1019396;29;20120;-71
2023/04/04 02:07:25;;;;;;;3.13;2.33;;;;;;;-3.92;100.00;96418.44;1019461;29;20465;-71
2023/04/04 02:07:56;;;;;;;7.13;3.10;;;;;;;-3.92;100.00;96418.44;1019851;29;20120;-70
2023/04/04 02:08:27;;;;;;;4.30;2.70;;;;;;;-3.92;100.00;96414.09;1022677;28;20699;-71
2023/04/04 02:08:58;;;;;;;4.83;2.57;;;;;;;-3.93;100.00;96417.59;1026132;28;20075;-70
2023/04/04 02:09:29;;;;;;;4.40;2.28;;;;;;;-3.94;100.00;96421.13;1022403;29;20045;-70
2023/04/04 02:10:00;;;;;;;5.80;2.40;;;;;;;-4.01;100.00;96406.53;1021855;29;20039;-70
2023/04/04 02:10:30;;;;;;;6.07;2.50;;;;;;;-3.95;100.00;96414.41;1018250;29;20031;-71
2023/04/04 02:11:01;;;;;;;6.10;2.63;;;;;;;-3.99;100.00;96408.00;1021984;29;20066;-70
2023/04/04 02:11:32;;;;;;;5.03;2.60;;;;;;;-4.00;100.00;96403.81;1022074;28;20053;-70
2023/04/04 02:12:02;;;;;;;4.43;2.77;;;;;;;-3.98;100.00;96414.72;1026063;28;20053;-71
2023/04/04 02:12:33;;;;;;;6.30;2.40;;;;;;;-4.06;100.00;96406.97;1014169;29;20039;-71
2023/04/04 02:13:03;;;;;;;5.67;2.80;;;;;;;-4.02;100.00;96413.44;1014026;29;20151;-70
2023/04/04 02:13:34;;;;;;;5.53;2.50;;;;;;;-4.05;100.00;96414.53;1018898;29;20067;-72
2023/04/04 02:14:05;;;;;;;7.17;2.27;;;;;;;-4.01;100.00;96411.66;1021914;29;20070;-70
2023/04/04 02:14:36;;;;;;;9.50;2.57;;;;;;;-3.98;100.00;96408.78;1013661;29;20063;-70
2023/04/04 02:15:07;;;;;;;11.40;2.67;;;;;;;-3.98;100.00;96406.22;1020942;29;20431;-71
2023/04/04 02:15:38;;;;;;;5.40;2.83;;;;;;;-3.97;100.00;96418.06;1025916;28;20055;-70
2023/04/04 02:16:09;;;;;;;3.20;2.73;;;;;;;-3.98;100.00;96419.03;1014391;29;20486;-70
2023/04/04 02:16:40;;;;;;;5.13;2.70;;;;;;;-4.06;100.00;96400.13;1017908;29;20043;-70
2023/04/04 02:17:11;;;;;;;7.20;2.42;;;;;;;-3.98;100.00;96417.28;1021855;29;20039;-71
2023/04/04 02:17:46;;;;;;;5.70;2.60;;;;;;;-3.98;100.00;96412.16;1026140;28;20038;-70
2023/04/04 02:18:17;;;;;;;6.10;2.40;;;;;;;-3.98;100.00;96411.34;1021937;29;20508;-69
2023/04/04 02:18:47;;;;;;;4.13;2.47;;;;;;;-3.96;100.00;96414.53;1020468;28;20063;-71
2023/04/04 02:19:18;;;;;;;4.37;2.53;;;;;;;-3.98;100.00;96419.03;1018017;29;20307;-70
2023/04/04 02:19:49;;;;;;;4.43;2.28;;;;;;;-3.99;100.00;96412.28;1018115;29;20099;-70
2023/04/04 02:20:20;;;;;;;3.17;2.20;;;;;;;-4.00;100.00;96416.63;1018441;29;20234;-70
2023/04/04 02:20:56;;;;;;;5.53;2.87;;;;;;;-4.01;100.00;96411.66;1017774;29;20074;-70
2023/04/04 02:21:27;;;;;;;5.50;2.53;;;;;;;-4.01;100.00;96416.78;1030207;28;20022;-70
2023/04/04 02:21:57;;;;;;;6.23;2.40;;;;;;;-4.04;100.00;96415.31;1021904;29;20419;-71
2023/04/04 02:22:28;;;;;;;8.57;3.20;;;;;;;-4.06;100.00;96418.06;1014640;29;20056;-69
2023/04/04 02:22:58;;;;;;;6.67;2.73;;;;;;;-4.07;100.00;96406.19;1018809;29;20028;-70
2023/04/04 02:23:29;;;;;;;6.17;2.70;;;;;;;-4.08;100.00;96412.28;1025023;28;20037;-70
2023/04/04 02:23:59;;;;;;;3.40;2.67;;;;;;;-4.09;100.00;96413.25;1022547;29;20039;-70
2023/04/04 02:24:30;;;;;;;3.47;2.50;;;;;;;-4.10;100.00;96421.88;1020927;28;20485;-69
2023/04/04 02:25:01;;;;;;;4.93;2.50;;;;;;;-4.11;100.00;96410.00;1022636;29;20054;-70
2023/04/04 02:25:32;;;;;;;5.10;2.58;;;;;;;-4.10;100.00;96410.81;1027029;28;20033;-70
2023/04/04 02:26:02;;;;;;;4.30;2.77;;;;;;;-4.10;100.00;96416.75;1014499;29;20140;-70
2023/04/04 02:26:33;;;;;;;4.07;2.90;;;;;;;-4.12;100.00;96413.53;1018455;29;20031;-71